createdAt,value
2023-03-13T00:01:25.961Z,100725.63
2023-03-13T00:04:28.432Z,100726.69
2023-03-13T00:07:30.749Z,100728.66
2023-03-13T00:10:33.196Z,100743.50
2023-03-13T00:13:36.253Z,100736.88
2023-03-13T00:16:39.679Z,100727.28
2023-03-13T00:19:42.084Z,100734.44
2023-03-13T00:22:44.507Z,100743.03
2023-03-13T00:25:46.659Z,100746.38
2023-03-13T00:28:50.805Z,100742.19
2023-03-13T00:31:53.086Z,100739.69
2023-03-13T00:34:55.837Z,100728.06
2023-03-13T00:37:58.031Z,100723.88
2023-03-13T00:41:05.956Z,100727.09
2023-03-13T00:44:08.354Z,100723.47
2023-03-13T00:47:10.830Z,100720.78
2023-03-13T00:50:12.974Z,100720.06
2023-03-13T00:53:16.130Z,100721.91
2023-03-13T00:56:20.175Z,100712.13
2023-03-13T00:59:22.623Z,100707.13
2023-03-13T01:02:25.189Z,100712.38
2023-03-13T01:05:27.839Z,100707.13
2023-03-13T01:08:30.520Z,100693.03
2023-03-13T01:11:36.383Z,100672.88
2023-03-13T01:14:38.587Z,100664.63
2023-03-13T01:17:43.891Z,100671.84
2023-03-13T01:20:47.785Z,100669.22
2023-03-13T01:23:52.372Z,100675.50
2023-03-13T01:26:54.693Z,100675.19
2023-03-13T01:29:57.196Z,100668.94
2023-03-13T01:32:59.469Z,100669.66
2023-03-13T01:36:03.854Z,100659.44
2023-03-13T01:39:07.024Z,100651.50
2023-03-13T01:42:09.549Z,100660.16
2023-03-13T01:45:54.886Z,100662.56
2023-03-13T01:49:23.927Z,100652.50
2023-03-13T01:52:28.615Z,100639.03
2023-03-13T01:55:33.487Z,100644.63
2023-03-13T01:58:36.677Z,100643.84
2023-03-13T02:01:39.667Z,100649.03
2023-03-13T02:04:47.311Z,100639.38
2023-03-13T02:08:00.972Z,100647.19
2023-03-13T02:11:10.899Z,100636.75
2023-03-13T02:14:13.494Z,100628.69
2023-03-13T02:17:16.231Z,100639.88
2023-03-13T02:20:23.495Z,100641.59
2023-03-13T02:23:39.276Z,100643.50
2023-03-13T02:26:42.006Z,100639.75
2023-03-13T02:29:44.239Z,100632.66
2023-03-13T02:32:47.618Z,100643.16
2023-03-13T02:35:50.030Z,100633.84
2023-03-13T02:38:56.540Z,100633.84
2023-03-13T02:42:01.511Z,100633.72
2023-03-13T02:45:05.548Z,100637.47
2023-03-13T02:48:09.237Z,100642.00
2023-03-13T02:51:20.868Z,100641.44
2023-03-13T02:54:28.780Z,100641.72
2023-03-13T02:57:31.860Z,100632.91
2023-03-13T03:00:35.757Z,100644.56
2023-03-13T03:03:38.449Z,100652.44
2023-03-13T03:06:40.576Z,100658.66
2023-03-13T03:09:43.371Z,100664.84
2023-03-13T03:12:46.082Z,100666.41
2023-03-13T03:15:48.987Z,100676.19
2023-03-13T03:18:51.837Z,100660.66
2023-03-13T03:21:55.178Z,100665.28
2023-03-13T03:24:57.312Z,100652.94
2023-03-13T03:28:00.013Z,100662.78
2023-03-13T03:31:08.031Z,100660.09
2023-03-13T03:34:10.979Z,100660.63
2023-03-13T03:37:13.364Z,100667.19
2023-03-13T03:40:15.983Z,100654.41
2023-03-13T03:43:19.098Z,100653.81
2023-03-13T03:46:21.727Z,100653.22
2023-03-13T03:49:23.974Z,100644.00
2023-03-13T03:52:26.831Z,100655.72
2023-03-13T03:55:29.032Z,100659.53
2023-03-13T03:58:31.810Z,100662.53
2023-03-13T04:01:34.421Z,100661.72
2023-03-13T04:04:38.671Z,100667.16
2023-03-13T04:07:41.935Z,100677.22
2023-03-13T04:10:44.480Z,100688.72
2023-03-13T04:13:47.118Z,100680.97
2023-03-13T04:16:49.779Z,100687.84
2023-03-13T04:19:52.177Z,100691.13
2023-03-13T04:22:55.246Z,100691.91
2023-03-13T04:25:57.605Z,100694.41
2023-03-13T04:29:00.184Z,100701.47
2023-03-13T04:32:03.680Z,100704.94
2023-03-13T04:35:06.994Z,100707.56
2023-03-13T04:38:09.270Z,100705.81
2023-03-13T04:41:11.994Z,100702.09
2023-03-13T04:44:14.335Z,100689.16
2023-03-13T04:47:16.861Z,100696.06
2023-03-13T04:50:19.239Z,100701.16
2023-03-13T04:53:22.085Z,100707.69
2023-03-13T04:56:41.555Z,100701.66
2023-03-13T04:59:45.908Z,100697.63
2023-03-13T05:02:48.710Z,100711.03
2023-03-13T05:05:51.868Z,100730.00
2023-03-13T05:08:54.617Z,100717.66
2023-03-13T05:11:58.282Z,100710.59
2023-03-13T05:15:00.731Z,100723.62
2023-03-13T05:18:03.861Z,100724.16
2023-03-13T05:21:07.500Z,100733.91
2023-03-13T05:24:11.291Z,100729.44
2023-03-13T05:27:13.904Z,100737.41
2023-03-13T05:30:17.090Z,100745.22
2023-03-13T05:33:19.567Z,100741.63
2023-03-13T05:36:22.325Z,100753.16
2023-03-13T05:39:25.002Z,100740.72
2023-03-13T05:42:27.786Z,100742.37
2023-03-13T05:45:32.177Z,100747.31
2023-03-13T05:48:34.892Z,100747.91
2023-03-13T05:51:37.504Z,100744.12
2023-03-13T05:54:40.141Z,100741.03
2023-03-13T05:57:48.535Z,100734.91
2023-03-13T06:00:51.334Z,100732.97
2023-03-13T06:03:54.927Z,100737.69
2023-03-13T06:06:58.660Z,100742.34
2023-03-13T06:10:01.523Z,100739.66
2023-03-13T06:13:18.639Z,100742.56
2023-03-13T06:16:23.134Z,100744.16
2023-03-13T06:19:25.775Z,100739.44
2023-03-13T06:22:28.194Z,100722.88
2023-03-13T06:25:30.353Z,100730.22
2023-03-13T06:28:32.901Z,100732.03
2023-03-13T06:31:35.328Z,100731.91
2023-03-13T06:34:38.827Z,100730.69
2023-03-13T06:37:41.753Z,100727.12
2023-03-13T06:40:46.379Z,100720.09
2023-03-13T06:43:49.098Z,100717.34
2023-03-13T06:46:51.626Z,100730.62
2023-03-13T06:49:53.898Z,100725.72
2023-03-13T06:52:57.494Z,100733.97
2023-03-13T06:56:01.926Z,100730.75
2023-03-13T06:59:04.435Z,100726.06
2023-03-13T07:02:06.729Z,100723.75
2023-03-13T07:05:09.368Z,100722.16
2023-03-13T07:08:11.490Z,100721.06
2023-03-13T07:11:14.888Z,100726.56
2023-03-13T07:14:17.905Z,100728.41
2023-03-13T07:17:20.695Z,100728.78
2023-03-13T07:20:23.033Z,100736.88
2023-03-13T07:23:28.282Z,100722.56
2023-03-13T07:26:30.602Z,100719.03
2023-03-13T07:29:33.126Z,100721.09
2023-03-13T07:32:35.398Z,100719.75
2023-03-13T07:35:39.625Z,100718.06
2023-03-13T07:38:43.936Z,100720.75
2023-03-13T07:41:46.597Z,100717.69
2023-03-13T07:44:51.033Z,100712.75
2023-03-13T07:47:53.537Z,100714.81
2023-03-13T07:50:56.112Z,100708.94
2023-03-13T07:53:58.535Z,100702.38
2023-03-13T07:57:02.498Z,100689.88
2023-03-13T08:00:10.551Z,100701.28
2023-03-13T08:03:14.392Z,100692.38
2023-03-13T08:06:20.029Z,100698.75
2023-03-13T08:09:22.228Z,100678.09
2023-03-13T08:12:24.889Z,100674.09
2023-03-13T08:15:28.856Z,100668.31
2023-03-13T08:18:34.828Z,100664.94
2023-03-13T08:21:38.325Z,100673.00
2023-03-13T08:24:40.653Z,100660.34
2023-03-13T08:27:43.051Z,100662.09
2023-03-13T08:30:46.342Z,100658.88
2023-03-13T08:33:48.706Z,100651.91
2023-03-13T08:36:53.236Z,100642.88
2023-03-13T08:39:56.876Z,100640.31
2023-03-13T08:42:59.306Z,100643.38
2023-03-13T08:46:01.531Z,100643.03
2023-03-13T08:49:06.777Z,100641.31
2023-03-13T08:52:08.959Z,100637.19
2023-03-13T08:55:11.942Z,100635.31
2023-03-13T08:58:14.159Z,100626.09
2023-03-13T09:01:17.317Z,100628.25
2023-03-13T09:04:20.265Z,100613.56
2023-03-13T09:07:22.698Z,100622.59
2023-03-13T09:10:24.882Z,100619.31
2023-03-13T09:13:29.301Z,100615.34
2023-03-13T09:16:34.190Z,100618.75
2023-03-13T09:19:37.162Z,100615.72
2023-03-13T09:22:39.285Z,100606.59
2023-03-13T09:25:43.036Z,100602.53
2023-03-13T09:28:45.470Z,100601.31
2023-03-13T09:31:48.001Z,100599.78
2023-03-13T09:34:51.401Z,100594.94
2023-03-13T09:37:53.736Z,100583.44
2023-03-13T09:41:06.281Z,100587.53
2023-03-13T09:44:29.687Z,100577.91
2023-03-13T09:47:50.886Z,100574.50
2023-03-13T09:51:24.295Z,100577.41
2023-03-13T09:54:36.249Z,100581.25
2023-03-13T09:57:51.390Z,100566.78
2023-03-13T10:01:00.871Z,100566.41
2023-03-13T10:04:35.751Z,100567.28
2023-03-13T10:07:38.378Z,100558.56
2023-03-13T10:11:03.696Z,100539.59
2023-03-13T10:14:13.806Z,100535.28
2023-03-13T10:17:29.762Z,100535.75
2023-03-13T10:20:35.954Z,100541.84
2023-03-13T10:23:45.830Z,100532.03
2023-03-13T10:26:48.152Z,100547.38
2023-03-13T10:29:50.632Z,100530.84
2023-03-13T10:33:20.360Z,100524.75
2023-03-13T10:36:23.737Z,100535.41
2023-03-13T10:39:28.554Z,100529.69
2023-03-13T10:42:38.196Z,100523.34
2023-03-13T10:45:40.448Z,100527.19
2023-03-13T10:48:42.955Z,100513.88
2023-03-13T10:51:53.645Z,100508.03
2023-03-13T10:55:10.099Z,100503.62
2023-03-13T10:58:19.940Z,100507.81
2023-03-13T11:01:34.473Z,100506.62
2023-03-13T11:04:39.773Z,100495.09
2023-03-13T11:07:42.488Z,100493.00
2023-03-13T11:11:19.006Z,100489.19
2023-03-13T11:14:27.328Z,100482.41
2023-03-13T11:17:40.941Z,100475.69
2023-03-13T11:20:46.532Z,100465.97
2023-03-13T11:24:01.758Z,100465.44
2023-03-13T11:27:59.813Z,100462.06
2023-03-13T11:31:14.122Z,100459.69
2023-03-13T11:34:29.494Z,100453.87
2023-03-13T11:37:34.218Z,100440.47
2023-03-13T11:41:07.686Z,100438.31
2023-03-13T11:44:34.534Z,100427.31
2023-03-13T11:48:04.021Z,100421.31
2023-03-13T11:51:32.245Z,100411.09
2023-03-13T11:54:50.265Z,100417.06
2023-03-13T11:58:01.465Z,100411.03
2023-03-13T12:01:16.686Z,100414.09
2023-03-13T12:04:44.174Z,100394.97
2023-03-13T12:07:53.812Z,100384.91
2023-03-13T12:11:09.661Z,100386.81
2023-03-13T12:14:18.640Z,100377.31
2023-03-13T12:17:38.292Z,100373.16
2023-03-13T12:20:53.548Z,100363.19
2023-03-13T12:24:21.341Z,100347.91
2023-03-13T12:27:32.716Z,100341.13
2023-03-13T12:30:44.455Z,100345.09
2023-03-13T12:33:56.252Z,100341.47
2023-03-13T12:37:07.754Z,100333.25
2023-03-13T12:40:30.159Z,100328.03
2023-03-13T12:43:34.770Z,100332.47
2023-03-13T12:46:40.244Z,100331.47
2023-03-13T12:49:57.996Z,100310.12
2023-03-13T12:53:48.622Z,100297.72
2023-03-13T12:57:12.711Z,100286.72
2023-03-13T13:00:23.554Z,100278.47
2023-03-13T13:03:40.972Z,100269.09
2023-03-13T13:07:02.567Z,100268.41
2023-03-13T13:10:10.894Z,100256.50
2023-03-13T13:13:15.739Z,100258.63
2023-03-13T13:16:21.804Z,100265.66
2023-03-13T13:19:24.088Z,100254.13
2023-03-13T13:22:38.569Z,100264.69
2023-03-13T13:25:40.954Z,100273.22
2023-03-13T13:28:43.917Z,100266.19
2023-03-13T13:31:51.851Z,100261.41
2023-03-13T13:35:16.661Z,100253.63
2023-03-13T13:38:18.901Z,100248.19
2023-03-13T13:41:33.050Z,100241.28
2023-03-13T13:44:35.449Z,100238.19
2023-03-13T13:47:38.440Z,100235.12
2023-03-13T13:51:14.659Z,100227.16
2023-03-13T13:54:33.919Z,100226.94
2023-03-13T13:57:37.657Z,100216.16
2023-03-13T14:00:50.507Z,100205.88
2023-03-13T14:03:59.198Z,100198.53
2023-03-13T14:07:04.515Z,100194.84
2023-03-13T14:10:13.075Z,100191.03
2023-03-13T14:13:22.575Z,100189.22
2023-03-13T14:16:26.884Z,100192.13
2023-03-13T14:19:42.838Z,100199.16
2023-03-13T14:22:47.838Z,100200.69
2023-03-13T14:25:51.160Z,100195.44
2023-03-13T14:28:54.720Z,100175.72
2023-03-13T14:31:59.521Z,100189.50
2023-03-13T14:35:04.931Z,100189.66
2023-03-13T14:38:07.493Z,100190.28
2023-03-13T14:41:24.174Z,100191.66
2023-03-13T14:44:31.989Z,100183.94
2023-03-13T14:47:34.492Z,100183.88
2023-03-13T14:50:36.757Z,100182.84
2023-03-13T14:53:39.268Z,100184.91
2023-03-13T14:56:45.234Z,100181.19
2023-03-13T14:59:47.881Z,100172.87
2023-03-13T15:02:50.323Z,100173.88
2023-03-13T15:06:07.264Z,100171.66
2023-03-13T15:09:20.067Z,100160.66
2023-03-13T15:12:23.603Z,100157.81
2023-03-13T15:15:25.829Z,100165.44
2023-03-13T15:18:34.317Z,100169.44
2023-03-13T15:21:37.606Z,100162.00
2023-03-13T15:24:39.953Z,100152.72
2023-03-13T15:27:42.063Z,100147.12
2023-03-13T15:30:46.565Z,100145.09
2023-03-13T15:33:53.028Z,100137.50
2023-03-13T15:36:55.512Z,100138.53
2023-03-13T15:39:57.975Z,100135.44
2023-03-13T15:43:00.480Z,100138.44
2023-03-13T15:46:05.531Z,100127.91
2023-03-13T15:49:12.850Z,100134.19
2023-03-13T15:52:19.366Z,100137.88
2023-03-13T15:55:21.926Z,100128.50
2023-03-13T15:58:25.855Z,100116.84
2023-03-13T16:01:28.754Z,100105.22
2023-03-13T16:04:33.107Z,100117.69
2023-03-13T16:07:35.381Z,100132.00
2023-03-13T16:10:37.856Z,100121.63
2023-03-13T16:13:40.414Z,100115.34
2023-03-13T16:16:43.238Z,100111.44
2023-03-13T16:19:46.414Z,100106.94
2023-03-13T16:22:50.658Z,100108.34
2023-03-13T16:25:54.611Z,100102.59
2023-03-13T16:28:58.132Z,100109.03
2023-03-13T16:32:00.305Z,100104.13
2023-03-13T16:35:04.795Z,100101.00
2023-03-13T16:38:11.482Z,100098.19
2023-03-13T16:41:16.558Z,100097.94
2023-03-13T16:44:18.739Z,100106.47
2023-03-13T16:47:28.610Z,100103.50
2023-03-13T16:50:38.381Z,100113.72
2023-03-13T16:53:40.894Z,100101.94
2023-03-13T16:56:43.914Z,100101.66
2023-03-13T16:59:47.488Z,100098.84
2023-03-13T17:02:49.925Z,100107.66
2023-03-13T17:05:52.532Z,100112.28
2023-03-13T17:08:56.349Z,100119.69
2023-03-13T17:11:58.844Z,100120.53
2023-03-13T17:15:00.973Z,100122.03
2023-03-13T17:18:04.045Z,100120.62
2023-03-13T17:21:11.271Z,100113.50
2023-03-13T17:24:14.486Z,100115.16
2023-03-13T17:27:18.089Z,100111.37
2023-03-13T17:30:23.594Z,100119.47
2023-03-13T17:33:26.846Z,100108.41
2023-03-13T17:36:29.524Z,100107.50
2023-03-13T17:39:31.893Z,100116.00
2023-03-13T17:42:34.307Z,100114.72
2023-03-13T17:45:36.891Z,100121.59
2023-03-13T17:48:39.368Z,100118.75
2023-03-13T17:51:44.437Z,100132.84
2023-03-13T17:54:46.916Z,100131.09
2023-03-13T17:57:49.420Z,100129.28
2023-03-13T18:00:51.992Z,100125.47
2023-03-13T18:03:55.222Z,100119.19
2023-03-13T18:06:57.427Z,100112.97
2023-03-13T18:09:59.980Z,100115.72
2023-03-13T18:13:02.215Z,100110.56
2023-03-13T18:16:29.983Z,100118.06
2023-03-13T18:19:32.330Z,100099.25
2023-03-13T18:22:34.794Z,100091.44
2023-03-13T18:25:37.004Z,100090.09
2023-03-13T18:28:39.447Z,100093.12
2023-03-13T18:31:43.601Z,100109.59
2023-03-13T18:34:46.161Z,100093.72
2023-03-13T18:37:48.687Z,100090.97
2023-03-13T18:40:51.149Z,100095.31
2023-03-13T18:43:53.426Z,100085.94
2023-03-13T18:46:55.906Z,100076.66
2023-03-13T18:49:58.167Z,100081.84
2023-03-13T18:53:01.001Z,100075.31
2023-03-13T18:56:13.703Z,100068.81
2023-03-13T18:59:20.875Z,100058.59
2023-03-13T19:02:23.441Z,100073.31
2023-03-13T19:05:26.142Z,100064.19
2023-03-13T19:08:28.333Z,100057.44
2023-03-13T19:11:32.141Z,100055.72
2023-03-13T19:14:34.308Z,100044.69
2023-03-13T19:17:36.989Z,100038.78
2023-03-13T19:20:39.159Z,100037.34
2023-03-13T19:23:41.649Z,100035.59
2023-03-13T19:26:50.001Z,100032.84
2023-03-13T19:29:52.495Z,100018.53
2023-03-13T19:32:54.777Z,100029.28
2023-03-13T19:35:57.272Z,100028.19
2023-03-13T19:38:59.590Z,100029.72
2023-03-13T19:42:02.162Z,100023.97
2023-03-13T19:45:05.979Z,100025.06
2023-03-13T19:48:09.889Z,100023.25
2023-03-13T19:51:12.035Z,100015.28
2023-03-13T19:54:15.004Z,100016.75
2023-03-13T19:57:17.364Z,100018.41
2023-03-13T20:00:23.276Z,100018.66
2023-03-13T20:03:25.242Z,100013.47
2023-03-13T20:06:30.845Z,100016.75
2023-03-13T20:09:35.422Z,100016.13
2023-03-13T20:12:39.249Z,100020.13
2023-03-13T20:15:41.429Z,100019.87
2023-03-13T20:18:47.432Z,100016.97
2023-03-13T20:21:49.688Z,100021.78
2023-03-13T20:24:53.521Z,100021.28
2023-03-13T20:27:55.685Z,100022.69
2023-03-13T20:30:58.253Z,100013.94
2023-03-13T20:34:00.660Z,100000.19
2023-03-13T20:37:03.873Z,100003.50
2023-03-13T20:40:08.088Z,99999.84
2023-03-13T20:43:10.553Z,99997.69
2023-03-13T20:46:12.798Z,99980.13
2023-03-13T20:49:15.313Z,99976.75
2023-03-13T20:52:17.486Z,99969.28
2023-03-13T20:55:20.314Z,99960.38
2023-03-13T20:58:23.879Z,99958.44
2023-03-13T21:01:27.550Z,99942.03
2023-03-13T21:04:29.961Z,99942.13
2023-03-13T21:07:32.436Z,99940.06
2023-03-13T21:10:38.657Z,99944.12
2023-03-13T21:13:41.209Z,99938.09
2023-03-13T21:16:43.425Z,99917.41
2023-03-13T21:19:46.087Z,99910.03
2023-03-13T21:22:48.418Z,99904.63
2023-03-13T21:25:55.390Z,99912.28
2023-03-13T21:28:58.422Z,99903.69
2023-03-13T21:32:01.038Z,99901.34
2023-03-13T21:35:04.514Z,99893.81
2023-03-13T21:38:06.993Z,99886.09
2023-03-13T21:41:12.288Z,99874.97
2023-03-13T21:44:19.463Z,99880.66
2023-03-13T21:47:24.510Z,99881.16
2023-03-13T21:50:27.286Z,99873.97
2023-03-13T21:53:29.427Z,99876.44
2023-03-13T21:56:31.954Z,99882.28
2023-03-13T21:59:34.244Z,99879.22
2023-03-13T22:02:37.232Z,99865.72
2023-03-13T22:05:44.477Z,99862.28
2023-03-13T22:08:48.436Z,99863.22
2023-03-13T22:11:51.006Z,99858.47
2023-03-13T22:14:54.551Z,99852.56
2023-03-13T22:18:00.790Z,99855.63
2023-03-13T22:21:03.266Z,99852.53
2023-03-13T22:24:06.754Z,99838.22
2023-03-13T22:27:10.379Z,99833.66
2023-03-13T22:30:13.230Z,99838.63
2023-03-13T22:33:15.678Z,99833.44
2023-03-13T22:36:18.286Z,99818.78
2023-03-13T22:39:20.660Z,99822.59
2023-03-13T22:42:24.244Z,99818.91
2023-03-13T22:45:26.462Z,99804.09
2023-03-13T22:48:29.010Z,99793.91
2023-03-13T22:51:31.185Z,99788.13
2023-03-13T22:54:33.694Z,99804.56
2023-03-13T22:57:35.913Z,99794.56
2023-03-13T23:00:38.350Z,99804.09
2023-03-13T23:03:41.182Z,99790.06
2023-03-13T23:06:43.672Z,99785.97
2023-03-13T23:09:46.241Z,99787.59
2023-03-13T23:12:48.778Z,99777.09
2023-03-13T23:15:58.200Z,99779.16
2023-03-13T23:19:02.122Z,99779.50
2023-03-13T23:22:04.331Z,99775.84
2023-03-13T23:25:07.692Z,99765.19
2023-03-13T23:28:09.927Z,99767.19
2023-03-13T23:31:17.823Z,99767.19
2023-03-13T23:34:21.908Z,99759.50
2023-03-13T23:37:24.874Z,99757.59
2023-03-13T23:40:28.220Z,99750.03
2023-03-13T23:43:30.716Z,99751.81
2023-03-13T23:46:32.954Z,99748.38
2023-03-13T23:49:35.400Z,99747.41
2023-03-13T23:52:37.701Z,99749.00
2023-03-13T23:55:40.180Z,99752.81
2023-03-13T23:58:42.363Z,99750.06
